Time;durP1;ratioP1;P1;durP2;ratioP2;P2;SDS_P1;SDS_P2;PMS_P1;PMS_P2;Temp;Humidity;BMP_temperature;BMP_pressure;BME280_temperature;BME280_humidity;BME280_pressure;Samples;Min_cycle;Max_cycle;Signal;HPM_P1;HPM_P2
2023/04/02 00:01:38;;;;;;;3.90;3.40;;;6.40;99.90;;;;;;5032814;28;20430;-89
2023/04/02 00:04:22;;;;;;;4.18;3.35;;;6.40;99.90;;;;;;5028483;28;20024;-89
2023/04/02 00:07:29;;;;;;;3.88;2.80;;;6.40;99.90;;;;;;5020864;28;20030;-88
2023/04/02 00:09:56;;;;;;;3.83;2.75;;;6.40;99.90;;;;;;5012874;28;20034;-89
2023/04/02 00:12:22;;;;;;;3.22;2.92;;;6.40;99.90;;;;;;5032990;28;20049;-88
2023/04/02 00:14:53;;;;;;;4.53;3.28;;;6.40;99.90;;;;;;5030443;28;20120;-91
2023/04/02 00:17:23;;;;;;;4.30;3.42;;;6.30;99.90;;;;;;5029150;28;20029;-90
2023/04/02 00:19:57;;;;;;;5.13;4.60;;;6.30;99.90;;;;;;5024766;28;20489;-89
2023/04/02 00:22:30;;;;;;;6.78;4.60;;;6.40;99.90;;;;;;5035971;28;20069;-90
2023/04/02 00:24:58;;;;;;;4.43;3.88;;;6.30;99.90;;;;;;5026023;28;20029;-89
2023/04/02 00:27:24;;;;;;;4.78;3.75;;;6.30;99.90;;;;;;5034761;28;20530;-89
2023/04/02 00:29:55;;;;;;;4.80;2.80;;;6.30;99.90;;;;;;5011271;28;20030;-89
2023/04/02 00:32:25;;;;;;;5.05;2.72;;;6.30;99.90;;;;;;5013086;28;20025;-90
2023/04/02 00:34:52;;;;;;;3.85;2.40;;;6.30;99.90;;;;;;5019208;28;20499;-89
2023/04/02 00:37:26;;;;;;;4.95;3.03;;;6.20;99.90;;;;;;5024107;28;20021;-91
2023/04/02 00:40:16;;;;;;;4.97;3.28;;;6.20;99.90;;;;;;5029529;28;20037;-89
2023/04/02 00:42:43;;;;;;;5.72;3.20;;;6.10;99.90;;;;;;5015072;28;20497;-91
2023/04/02 00:45:31;;;;;;;3.13;2.05;;;6.10;99.90;;;;;;5019167;28;20477;-88
2023/04/02 00:48:11;;;;;;;4.47;2.50;;;6.10;99.90;;;;;;5037599;28;20082;-88
2023/04/02 00:50:41;;;;;;;;;;;6.10;99.90;;;;;;5018328;28;20026;-90
2023/04/02 00:53:22;;;;;;;4.50;2.03;;;6.10;99.90;;;;;;5043399;28;19909;-89
2023/04/02 00:55:49;;;;;;;4.28;2.30;;;6.00;99.90;;;;;;5036379;28;20667;-89
2023/04/02 00:58:24;;;;;;;2.80;1.70;;;6.10;99.90;;;;;;5012348;28;20493;-87
2023/04/02 01:00:53;;;;;;;2.78;1.60;;;6.00;99.90;;;;;;5024265;28;20059;-91
2023/04/02 01:03:21;;;;;;;2.33;1.45;;;6.00;99.90;;;;;;5012194;28;20025;-88
2023/04/02 01:05:50;;;;;;;3.17;1.65;;;6.00;99.90;;;;;;5022107;28;20073;-90
2023/04/02 01:08:19;;;;;;;2.50;1.42;;;5.90;99.90;;;;;;5020463;28;20029;-90
2023/04/02 01:10:53;;;;;;;4.00;1.33;;;5.90;99.90;;;;;;5017778;28;20029;-89
2023/04/02 01:13:53;;;;;;;2.85;2.03;;;5.90;99.90;;;;;;5025452;28;20068;-87
2023/04/02 01:16:21;;;;;;;2.67;1.30;;;5.90;99.90;;;;;;5038485;28;20040;-92
2023/04/02 01:19:00;;;;;;;2.45;1.30;;;5.90;99.90;;;;;;5019205;28;20108;-90
2023/04/02 01:21:45;;;;;;;3.28;2.03;;;5.90;99.90;;;;;;5037193;28;20115;-90
2023/04/02 01:24:12;;;;;;;2.83;2.20;;;5.90;99.90;;;;;;5036079;28;20062;-89
2023/04/02 01:26:46;;;;;;;2.15;1.02;;;5.90;99.90;;;;;;5025917;28;20025;-90
2023/04/02 01:29:41;;;;;;;4.13;1.50;;;5.80;99.90;;;;;;5028127;28;20025;-90
2023/04/02 01:32:14;;;;;;;2.70;1.77;;;5.80;99.90;;;;;;5017504;28;20374;-89
2023/04/02 01:34:44;;;;;;;4.85;1.90;;;5.80;99.90;;;;;;5024541;28;20085;-90
2023/04/02 01:37:39;;;;;;;2.90;1.77;;;5.80;99.90;;;;;;5021925;28;20028;-89
2023/04/02 01:40:37;;;;;;;2.45;1.40;;;5.80;99.90;;;;;;5018078;28;20041;-88
2023/04/02 01:43:30;;;;;;;2.10;1.10;;;5.80;99.90;;;;;;5045906;28;20422;-89
2023/04/02 01:45:57;;;;;;;2.88;1.63;;;5.80;99.90;;;;;;5023513;28;20535;-88
2023/04/02 01:48:28;;;;;;;3.70;2.42;;;5.80;99.90;;;;;;5040297;28;20021;-87
2023/04/02 01:50:57;;;;;;;6.13;4.35;;;5.80;99.90;;;;;;5014625;28;20485;-88
2023/04/02 01:53:26;;;;;;;4.78;4.25;;;5.70;99.90;;;;;;5021190;28;20025;-88
2023/04/02 01:55:55;;;;;;;4.20;3.70;;;5.70;99.90;;;;;;5037135;28;20112;-91
2023/04/02 01:58:24;;;;;;;5.82;4.28;;;5.70;99.90;;;;;;5018214;28;20087;-89
2023/04/02 02:00:56;;;;;;;3.65;2.70;;;5.70;99.90;;;;;;5025957;28;20033;-90
2023/04/02 02:03:22;;;;;;;4.72;3.75;;;5.70;99.90;;;;;;5021603;28;20488;-89
2023/04/02 02:05:49;;;;;;;5.45;2.90;;;5.70;99.90;;;;;;5026459;28;20115;-88
2023/04/02 02:08:30;;;;;;;4.18;3.00;;;5.70;99.90;;;;;;5014047;28;20124;-89
2023/04/02 02:10:57;;;;;;;4.85;4.15;;;5.70;99.90;;;;;;5011993;28;20029;-89
2023/04/02 02:13:22;;;;;;;7.07;4.60;;;5.60;99.90;;;;;;5030680;28;20504;-89
2023/04/02 02:15:49;;;;;;;7.00;4.18;;;5.60;99.90;;;;;;5032393;28;20037;-89
2023/04/02 02:18:20;;;;;;;5.95;4.00;;;5.50;99.90;;;;;;5037166;28;20025;-88
2023/04/02 02:20:46;;;;;;;7.35;3.70;;;5.50;99.90;;;;;;5030975;28;20049;-88
2023/04/02 02:23:12;;;;;;;5.18;3.60;;;5.50;99.90;;;;;;5020865;28;20650;-88
2023/04/02 02:25:39;;;;;;;5.43;3.83;;;5.50;99.90;;;;;;5012782;28;20033;-88
2023/04/02 02:28:28;;;;;;;5.63;3.45;;;5.50;99.90;;;;;;5036204;28;20036;-88
2023/04/02 02:31:02;;;;;;;6.22;3.35;;;5.50;99.90;;;;;;5023436;28;20385;-88
2023/04/02 02:33:32;;;;;;;4.47;2.65;;;5.40;99.90;;;;;;5009244;28;20373;-89
2023/04/02 02:36:12;;;;;;;6.40;4.15;;;5.40;99.90;;;;;;5040355;28;20061;-89
2023/04/02 02:38:56;;;;;;;5.07;3.67;;;5.40;99.90;;;;;;5018310;28;20393;-90
2023/04/02 02:41:56;;;;;;;4.00;3.38;;;5.40;99.90;;;;;;5032235;28;20469;-87
2023/04/02 02:44:30;;;;;;;4.18;2.42;;;5.30;99.90;;;;;;5013197;28;20108;-90
2023/04/02 02:47:04;;;;;;;2.88;2.30;;;5.30;99.90;;;;;;5038122;28;20021;-87
2023/04/02 02:49:34;;;;;;;4.90;2.45;;;5.30;99.90;;;;;;5028983;28;20489;-87
2023/04/02 02:52:07;;;;;;;3.83;2.10;;;5.30;99.90;;;;;;5012846;28;20039;-87
2023/04/02 02:54:45;;;;;;;3.35;1.83;;;5.40;99.90;;;;;;5028987;28;20410;-88
2023/04/02 02:57:17;;;;;;;4.70;3.35;;;5.40;99.90;;;;;;5037319;28;20025;-89
2023/04/02 02:59:45;;;;;;;6.22;3.10;;;5.30;99.90;;;;;;5019115;28;20031;-91
2023/04/02 03:02:11;;;;;;;3.95;2.00;;;5.20;99.90;;;;;;5043490;28;20025;-86
2023/04/02 03:04:37;;;;;;;4.85;2.75;;;5.20;99.90;;;;;;5025237;28;20025;-89
2023/04/02 03:07:10;;;;;;;3.90;2.22;;;5.20;99.90;;;;;;5034624;28;20478;-86
2023/04/02 03:10:12;;;;;;;3.95;2.33;;;5.10;99.90;;;;;;5010911;28;20545;-87
2023/04/02 03:12:59;;;;;;;4.38;2.72;;;5.20;99.90;;;;;;5014577;28;20044;-87
2023/04/02 03:15:30;;;;;;;5.55;3.17;;;5.10;99.90;;;;;;5002349;28;20044;-87
2023/04/02 03:18:02;;;;;;;5.82;3.75;;;5.00;99.90;;;;;;5020226;28;20028;-85
2023/04/02 03:20:39;;;;;;;5.47;3.25;;;4.90;99.90;;;;;;5036792;28;20108;-87
2023/04/02 03:23:14;;;;;;;4.35;2.40;;;4.90;99.90;;;;;;5008984;28;20030;-86
2023/04/02 03:26:09;;;;;;;4.22;2.45;;;5.00;99.90;;;;;;5019234;28;20028;-85
2023/04/02 03:28:55;;;;;;;3.28;2.38;;;4.90;99.90;;;;;;5036591;28;20036;-87
2023/04/02 03:31:31;;;;;;;3.97;1.98;;;4.90;99.90;;;;;;5024725;28;20033;-86
2023/04/02 03:34:03;;;;;;;3.85;2.30;;;4.90;99.90;;;;;;5028110;28;20556;-87
2023/04/02 03:36:37;;;;;;;4.70;2.53;;;4.90;99.90;;;;;;5020218;28;20029;-86
2023/04/02 03:39:09;;;;;;;5.32;1.98;;;4.90;99.90;;;;;;5026199;28;20077;-88
2023/04/02 03:41:40;;;;;;;3.60;1.95;;;4.90;99.90;;;;;;5011194;28;20029;-86
2023/04/02 03:44:38;;;;;;;3.10;1.45;;;4.90;99.90;;;;;;5018098;28;20519;-86
2023/04/02 03:47:28;;;;;;;3.42;1.80;;;4.90;99.90;;;;;;5028967;28;20036;-86
2023/04/02 03:50:16;;;;;;;2.17;1.00;;;4.90;99.90;;;;;;5031162;28;20029;-86
2023/04/02 03:52:42;;;;;;;3.58;1.48;;;4.80;99.90;;;;;;5030995;28;20072;-86
2023/04/02 03:55:18;;;;;;;3.17;1.50;;;4.80;99.90;;;;;;5010093;28;20393;-86
2023/04/02 03:58:08;;;;;;;5.07;1.98;;;4.80;99.90;;;;;;5035041;28;20381;-85
2023/04/02 04:00:47;;;;;;;3.80;1.80;;;4.80;99.90;;;;;;5036435;28;20038;-85
2023/04/02 04:03:23;;;;;;;5.63;2.22;;;4.80;99.90;;;;;;5019634;28;20462;-86
2023/04/02 04:05:50;;;;;;;6.13;2.45;;;4.70;99.90;;;;;;5009151;28;20029;-86
2023/04/02 04:08:20;;;;;;;3.25;2.53;;;4.70;99.90;;;;;;5035470;28;20040;-85
2023/04/02 04:10:55;;;;;;;4.28;2.40;;;4.70;99.90;;;;;;5034387;28;20459;-85
2023/04/02 04:13:53;;;;;;;3.97;2.17;;;4.70;99.90;;;;;;5021663;28;20063;-87
2023/04/02 04:16:52;;;;;;;3.75;1.92;;;4.70;99.90;;;;;;5008940;28;20026;-84
2023/04/02 04:19:31;;;;;;;2.95;1.67;;;4.70;99.90;;;;;;5036288;28;20036;-87
2023/04/02 04:22:14;;;;;;;3.25;1.83;;;4.70;99.90;;;;;;5032208;28;20034;-89
2023/04/02 04:24:44;;;;;;;3.33;1.45;;;4.70;99.90;;;;;;5037983;28;20510;-88
2023/04/02 04:27:32;;;;;;;3.45;1.55;;;4.70;99.90;;;;;;5044317;28;20491;-88
2023/04/02 04:30:04;;;;;;;4.18;2.83;;;4.60;99.90;;;;;;5041023;28;20159;-86
2023/04/02 04:32:41;;;;;;;5.55;2.08;;;4.70;99.90;;;;;;5016068;28;20382;-87
2023/04/02 04:35:34;;;;;;;3.67;2.15;;;4.70;99.90;;;;;;5032411;28;20037;-86
2023/04/02 04:38:14;;;;;;;4.15;1.60;;;4.70;99.90;;;;;;5023189;28;20037;-87
2023/04/02 04:41:04;;;;;;;2.97;1.48;;;4.60;99.90;;;;;;5016107;28;20030;-88
2023/04/02 04:43:36;;;;;;;4.45;2.13;;;4.60;99.90;;;;;;5031650;28;20452;-86
2023/04/02 04:46:09;;;;;;;4.45;2.45;;;4.60;99.90;;;;;;5023822;28;20037;-86
2023/04/02 04:48:55;;;;;;;7.55;2.60;;;4.50;99.90;;;;;;5025271;28;20038;-89
2023/04/02 04:51:46;;;;;;;3.80;1.88;;;4.50;99.90;;;;;;5020723;28;20132;-87
2023/04/02 04:54:13;;;;;;;2.70;1.52;;;4.40;99.90;;;;;;5044441;28;20371;-87
2023/04/02 04:56:48;;;;;;;5.22;2.33;;;4.40;99.90;;;;;;5031705;28;20036;-86
2023/04/02 04:59:25;;;;;;;3.85;2.22;;;4.40;99.90;;;;;;5041054;28;20096;-87
2023/04/02 05:02:01;;;;;;;3.72;1.80;;;4.30;99.90;;;;;;5022449;28;20023;-86
2023/04/02 05:04:35;;;;;;;5.22;2.15;;;4.30;99.90;;;;;;5052927;28;20034;-89
2023/04/02 05:07:24;;;;;;;4.57;1.30;;;4.20;99.90;;;;;;5010095;28;20029;-86
2023/04/02 05:09:53;;;;;;;3.55;1.23;;;4.30;99.90;;;;;;5038981;28;20030;-87
2023/04/02 05:12:42;;;;;;;4.35;0.95;;;4.20;99.90;;;;;;5014218;28;20052;-88
2023/04/02 05:15:11;;;;;;;3.55;1.33;;;4.20;99.90;;;;;;5028024;28;20045;-87
2023/04/02 05:17:50;;;;;;;3.83;0.88;;;4.10;99.90;;;;;;5041700;28;20111;-86
2023/04/02 05:20:23;;;;;;;;;;;4.10;99.90;;;;;;5032326;28;20055;-88
2023/04/02 05:23:22;;;;;;;4.25;0.90;;;4.00;99.90;;;;;;5031814;28;20055;-86
2023/04/02 05:25:57;;;;;;;2.70;0.80;;;4.00;99.90;;;;;;5036189;28;20033;-89
2023/04/02 05:28:38;;;;;;;4.60;1.25;;;4.00;99.90;;;;;;5036781;28;20441;-86
2023/04/02 05:31:11;;;;;;;5.82;1.00;;;3.80;99.90;;;;;;5031723;28;20116;-86
2023/04/02 05:33:38;;;;;;;2.78;0.98;;;3.90;99.90;;;;;;5035336;28;20029;-87
2023/04/02 05:36:28;;;;;;;2.63;0.87;;;3.80;99.90;;;;;;5026796;28;20021;-87
2023/04/02 05:38:57;;;;;;;3.47;0.82;;;3.90;99.90;;;;;;5037960;28;20350;-87
2023/04/02 05:41:42;;;;;;;2.38;0.70;;;3.80;99.90;;;;;;5021846;28;20432;-88
2023/04/02 05:44:25;;;;;;;;;;;3.80;99.90;;;;;;5040578;28;20120;-89
2023/04/02 05:47:07;;;;;;;2.45;0.63;;;3.80;99.90;;;;;;5036596;28;19913;-87
2023/04/02 05:49:44;;;;;;;3.85;0.60;;;3.80;99.90;;;;;;5017464;28;20056;-87
2023/04/02 05:52:26;;;;;;;3.30;0.70;;;3.80;99.90;;;;;;5010992;28;20029;-88
2023/04/02 05:55:21;;;;;;;4.85;1.10;;;3.80;99.90;;;;;;5039149;28;20029;-87
2023/04/02 05:57:58;;;;;;;4.10;0.52;;;3.70;99.90;;;;;;5035892;28;20030;-87
2023/04/02 06:00:36;;;;;;;3.22;0.50;;;3.70;99.90;;;;;;5020882;28;20131;-89
2023/04/02 06:03:12;;;;;;;4.35;0.50;;;3.70;99.90;;;;;;5020268;28;20083;-86
2023/04/02 06:05:43;;;;;;;2.95;0.68;;;3.70;99.90;;;;;;5035612;28;20026;-89
2023/04/02 06:08:18;;;;;;;3.00;0.50;;;3.70;99.90;;;;;;5019282;28;20025;-86
2023/04/02 06:11:00;;;;;;;2.35;0.40;;;3.70;99.90;;;;;;5038548;28;20044;-87
2023/04/02 06:13:27;;;;;;;3.33;0.40;;;3.60;99.90;;;;;;5037226;28;20076;-90
2023/04/02 06:15:54;;;;;;;2.97;0.30;;;3.60;99.90;;;;;;5036387;28;20489;-88
2023/04/02 06:18:34;;;;;;;2.38;0.40;;;3.60;99.90;;;;;;5016051;28;20053;-91
2023/04/02 06:21:04;;;;;;;2.60;0.30;;;3.70;99.90;;;;;;5031427;28;20041;-90
2023/04/02 06:23:37;;;;;;;2.30;0.40;;;3.70;99.90;;;;;;5046847;28;20029;-88
2023/04/02 06:26:21;;;;;;;1.20;0.30;;;3.60;99.90;;;;;;5018724;28;20030;-89
2023/04/02 06:29:00;;;;;;;2.67;0.30;;;3.70;99.90;;;;;;5033338;28;20025;-95
2023/04/02 06:31:44;;;;;;;1.42;0.40;;;3.80;99.90;;;;;;5025259;28;20033;-87
2023/04/02 06:34:17;;;;;;;2.90;0.43;;;3.80;99.90;;;;;;5026659;28;20421;-93
2023/04/02 06:36:58;;;;;;;2.00;0.30;;;3.80;99.90;;;;;;5022611;28;20388;-89
2023/04/02 06:39:26;;;;;;;3.00;0.40;;;3.80;99.90;;;;;;5031041;28;20124;-88
2023/04/02 06:42:12;;;;;;;3.13;0.50;;;3.80;99.90;;;;;;5033259;28;20017;-89
2023/04/02 06:44:56;;;;;;;1.50;0.30;;;3.70;99.90;;;;;;5025984;28;20045;-93
2023/04/02 06:47:46;;;;;;;2.22;0.40;;;3.80;99.90;;;;;;5037287;28;20259;-90
2023/04/02 06:50:25;;;;;;;1.77;0.30;;;3.70;99.90;;;;;;5024404;28;20089;-93
2023/04/02 06:53:03;;;;;;;3.35;0.40;;;3.70;99.90;;;;;;5039856;28;20108;-87
2023/04/02 06:55:59;;;;;;;3.08;0.40;;;3.70;99.90;;;;;;5040512;28;20506;-88
2023/04/02 06:58:28;;;;;;;3.15;0.50;;;3.60;99.90;;;;;;5033472;28;20079;-89
2023/04/02 07:00:54;;;;;;;2.88;0.47;;;3.60;99.90;;;;;;5031081;28;20109;-93
2023/04/02 07:03:34;;;;;;;;;;;3.60;99.90;;;;;;5020569;28;20390;-94
2023/04/02 07:06:16;;;;;;;0.98;0.30;;;3.60;99.90;;;;;;5019613;28;20056;-91
2023/04/02 07:08:43;;;;;;;2.40;0.40;;;3.60;99.90;;;;;;5042840;28;20032;-92
2023/04/02 07:11:14;;;;;;;1.08;0.30;;;3.60;99.90;;;;;;5023923;28;20032;-92
2023/04/02 07:13:40;;;;;;;1.10;0.30;;;3.70;99.90;;;;;;5020479;28;20025;-91
2023/04/02 07:16:15;;;;;;;2.58;0.40;;;3.60;99.90;;;;;;5009436;28;20029;-92
2023/04/02 07:18:41;;;;;;;3.03;0.40;;;3.60;99.90;;;;;;5034953;28;20116;-90
2023/04/02 07:21:07;;;;;;;2.15;0.35;;;3.70;99.90;;;;;;5028800;28;20041;-94
2023/04/02 07:23:33;;;;;;;1.33;0.25;;;3.80;99.90;;;;;;5019988;28;20029;-89
2023/04/02 07:26:00;;;;;;;3.58;0.40;;;3.90;99.90;;;;;;5010364;28;20553;-90
2023/04/02 07:28:27;;;;;;;1.55;0.40;;;3.80;99.90;;;;;;5020792;28;20026;-91
2023/04/02 07:30:53;;;;;;;1.88;0.40;;;3.80;99.90;;;;;;5021789;28;20021;-90
2023/04/02 07:33:22;;;;;;;2.03;0.43;;;3.90;99.90;;;;;;5023042;28;20017;-89
2023/04/02 07:35:50;;;;;;;2.58;0.38;;;3.90;99.90;;;;;;5033400;28;20462;-94
2023/04/02 07:38:16;;;;;;;1.73;0.40;;;3.90;99.90;;;;;;5028121;28;20034;-93
2023/04/02 07:40:42;;;;;;;1.67;0.30;;;3.90;99.90;;;;;;5004111;28;20037;-92
2023/04/02 07:43:08;;;;;;;1.27;0.22;;;3.90;99.90;;;;;;5050344;28;20025;-90
2023/04/02 07:45:34;;;;;;;1.50;0.20;;;4.00;99.90;;;;;;5035418;28;20040;-91
2023/04/02 07:48:11;;;;;;;0.85;0.20;;;3.90;99.90;;;;;;5005423;28;20029;-89
2023/04/02 07:50:37;;;;;;;1.70;0.30;;;4.00;99.90;;;;;;5035410;28;20037;-91
2023/04/02 07:53:03;;;;;;;1.15;0.30;;;4.10;99.90;;;;;;5011862;28;20017;-90
2023/04/02 07:55:28;;;;;;;1.27;0.30;;;3.90;99.90;;;;;;5034603;28;20435;-91
2023/04/02 07:57:57;;;;;;;2.42;0.30;;;3.90;99.90;;;;;;5019410;28;20519;-89
2023/04/02 08:00:24;;;;;;;1.05;0.30;;;4.00;99.90;;;;;;5027599;28;20056;-92
2023/04/02 08:02:50;;;;;;;0.93;0.30;;;4.10;99.90;;;;;;5031542;28;20490;-92
2023/04/02 08:05:16;;;;;;;2.30;0.40;;;4.20;99.90;;;;;;5008593;28;20025;-89
2023/04/02 08:07:43;;;;;;;3.58;0.40;;;4.30;99.90;;;;;;5021109;28;20018;-91
2023/04/02 08:10:11;;;;;;;1.52;0.68;;;4.30;99.90;;;;;;5034165;28;20473;-92
2023/04/02 08:12:37;;;;;;;1.92;0.40;;;4.30;99.90;;;;;;5031364;28;20049;-91
2023/04/02 08:15:09;;;;;;;2.22;0.35;;;4.40;99.90;;;;;;5023329;28;20373;-90
2023/04/02 08:17:35;;;;;;;2.90;0.50;;;4.40;99.90;;;;;;5022931;28;20105;-91
2023/04/02 08:20:05;;;;;;;2.55;0.82;;;4.30;99.90;;;;;;5006547;28;20088;-88
2023/04/02 08:22:31;;;;;;;2.88;0.57;;;4.30;99.90;;;;;;5008178;28;20030;-93
2023/04/02 08:24:57;;;;;;;1.80;0.40;;;4.20;99.90;;;;;;5017231;28;20046;-95
2023/04/02 08:27:23;;;;;;;2.40;0.35;;;4.30;99.90;;;;;;5023494;28;20036;-91
2023/04/02 08:29:50;;;;;;;1.05;0.30;;;4.40;99.90;;;;;;5007716;28;20244;-92
2023/04/02 08:32:15;;;;;;;2.10;0.20;;;4.30;99.90;;;;;;5038102;28;20120;-90
2023/04/02 08:34:42;;;;;;;1.00;0.20;;;4.50;99.90;;;;;;5015888;28;20060;-90
2023/04/02 08:37:11;;;;;;;3.50;0.32;;;4.50;99.90;;;;;;5040885;28;20025;-91
2023/04/02 08:39:37;;;;;;;2.38;0.30;;;4.60;99.90;;;;;;5027079;28;20045;-91
2023/04/02 08:42:05;;;;;;;2.55;0.30;;;4.60;99.90;;;;;;5025352;28;20064;-88
2023/04/02 08:44:55;;;;;;;2.28;0.30;;;4.70;99.90;;;;;;5027872;28;20087;-88
2023/04/02 08:47:24;;;;;;;1.52;0.30;;;4.60;99.90;;;;;;5033569;28;20120;-88
2023/04/02 08:49:59;;;;;;;2.58;0.32;;;4.70;99.90;;;;;;5016087;28;20084;-88
2023/04/02 08:52:33;;;;;;;3.95;0.40;;;4.70;99.90;;;;;;5030283;28;20034;-87
2023/04/02 08:55:01;;;;;;;1.95;0.73;;;4.80;99.90;;;;;;5016736;28;20068;-87
2023/04/02 08:57:33;;;;;;;2.65;0.30;;;4.70;99.90;;;;;;5023048;28;20030;-87
2023/04/02 09:00:28;;;;;;;1.60;0.20;;;4.80;99.90;;;;;;5029543;28;20397;-88
2023/04/02 09:03:05;;;;;;;4.22;0.30;;;4.90;99.90;;;;;;4979232;28;20116;-88
2023/04/02 09:05:38;;;;;;;2.45;0.40;;;4.80;99.90;;;;;;5042738;28;20657;-86
2023/04/02 09:08:14;;;;;;;1.00;0.30;;;4.90;99.90;;;;;;5029128;28;20053;-86
2023/04/02 09:10:52;;;;;;;1.40;0.60;;;5.10;99.90;;;;;;5027457;28;20052;-87
2023/04/02 09:13:29;;;;;;;1.33;0.30;;;5.20;99.90;;;;;;5014196;28;20046;-86
2023/04/02 09:16:17;;;;;;;3.45;0.40;;;5.20;99.90;;;;;;5036278;28;20133;-86
2023/04/02 09:18:45;;;;;;;2.80;0.32;;;5.30;99.90;;;;;;5028899;28;20045;-88
2023/04/02 09:21:20;;;;;;;1.90;0.20;;;5.30;99.90;;;;;;5021294;28;20087;-85
2023/04/02 09:23:47;;;;;;;3.30;0.30;;;5.50;99.90;;;;;;5019748;28;20037;-86
2023/04/02 09:26:23;;;;;;;1.73;0.30;;;5.50;99.90;;;;;;5007839;28;20091;-88
2023/04/02 09:28:51;;;;;;;2.08;0.25;;;5.50;99.90;;;;;;5048381;28;20033;-85
2023/04/02 09:31:36;;;;;;;2.80;0.40;;;5.60;99.90;;;;;;5029219;28;20401;-88
2023/04/02 09:34:29;;;;;;;1.70;0.30;;;5.60;99.90;;;;;;5013609;28;20038;-86
2023/04/02 09:36:56;;;;;;;1.75;0.30;;;5.80;99.90;;;;;;5010225;28;20021;-87
2023/04/02 09:39:25;;;;;;;2.20;0.30;;;5.90;99.90;;;;;;5033944;28;20075;-86
2023/04/02 09:41:51;;;;;;;0.90;0.30;;;6.10;99.90;;;;;;5031609;28;20021;-87
2023/04/02 09:44:24;;;;;;;0.82;0.30;;;6.10;99.90;;;;;;5029139;28;20033;-87
2023/04/02 09:46:53;;;;;;;1.65;0.30;;;5.90;99.90;;;;;;5035650;28;20044;-85
2023/04/02 09:49:22;;;;;;;0.98;0.20;;;6.20;99.90;;;;;;5033846;28;20056;-87
2023/04/02 09:52:15;;;;;;;2.60;0.52;;;6.10;99.90;;;;;;5050345;28;20028;-86
2023/04/02 09:54:41;;;;;;;1.55;0.30;;;6.10;99.90;;;;;;5019272;28;20033;-89
2023/04/02 09:57:26;;;;;;;2.17;0.30;;;6.10;99.90;;;;;;5018216;28;20035;-85
2023/04/02 10:00:16;;;;;;;1.95;0.30;;;6.10;99.90;;;;;;5043281;28;20037;-87
2023/04/02 10:02:43;;;;;;;3.30;0.30;;;6.10;99.90;;;;;;5013970;28;20393;-86
2023/04/02 10:05:22;;;;;;;0.98;0.22;;;6.00;99.90;;;;;;5034892;28;20079;-90
2023/04/02 10:07:52;;;;;;;2.30;0.30;;;6.10;99.90;;;;;;5032459;28;20068;-88
2023/04/02 10:10:18;;;;;;;1.95;0.30;;;5.90;99.90;;;;;;5010714;28;20028;-86
2023/04/02 10:12:55;;;;;;;2.67;0.30;;;5.90;99.90;;;;;;5012756;28;20049;-87
2023/04/02 10:15:28;;;;;;;1.35;0.20;;;5.90;99.90;;;;;;5019540;28;20052;-86
2023/04/02 10:18:11;;;;;;;0.60;0.20;;;6.00;99.90;;;;;;5045432;28;20033;-87
2023/04/02 10:20:40;;;;;;;1.98;0.20;;;6.00;99.90;;;;;;5033043;28;20049;-89
2023/04/02 10:23:14;;;;;;;1.35;0.20;;;5.90;99.90;;;;;;5020625;28;20064;-88
2023/04/02 10:25:47;;;;;;;1.20;0.22;;;5.80;99.90;;;;;;5034788;28;20036;-87
2023/04/02 10:28:41;;;;;;;1.08;0.30;;;5.80;99.90;;;;;;5008431;28;20052;-89
2023/04/02 10:31:24;;;;;;;1.15;0.20;;;5.70;99.90;;;;;;5019326;28;20033;-88
2023/04/02 10:33:54;;;;;;;1.92;0.30;;;5.70;99.90;;;;;;5035180;28;20033;-86
2023/04/02 10:36:29;;;;;;;1.17;0.25;;;5.90;99.90;;;;;;5034267;28;20040;-88
2023/04/02 10:39:11;;;;;;;1.98;0.30;;;6.00;99.90;;;;;;5027017;28;20055;-89
2023/04/02 10:42:13;;;;;;;2.97;0.30;;;5.80;99.90;;;;;;5053791;28;20485;-85
2023/04/02 10:44:48;;;;;;;1.15;0.30;;;5.50;99.90;;;;;;5015003;28;20117;-87
2023/04/02 10:47:43;;;;;;;2.08;0.30;;;5.40;99.90;;;;;;5038468;28;20029;-87
2023/04/02 10:50:35;;;;;;;1.15;0.22;;;6.10;99.90;;;;;;5025236;28;20022;-86
2023/04/02 10:53:15;;;;;;;1.60;0.30;;;6.50;99.90;;;;;;5033697;28;20048;-87
2023/04/02 10:55:57;;;;;;;1.88;0.25;;;6.70;99.90;;;;;;5031634;28;20025;-87
2023/04/02 10:58:25;;;;;;;2.08;0.40;;;7.00;99.90;;;;;;5046879;28;20040;-86
2023/04/02 11:00:58;;;;;;;1.85;0.20;;;7.20;99.90;;;;;;5028804;28;20033;-87
2023/04/02 11:03:48;;;;;;;2.13;0.52;;;7.20;99.90;;;;;;5027993;28;20028;-87
2023/04/02 11:06:17;;;;;;;0.80;0.20;;;7.40;99.90;;;;;;5035068;28;20079;-86
2023/04/02 11:08:50;;;;;;;1.92;0.35;;;7.80;99.90;;;;;;5015935;28;20055;-87
2023/04/02 11:11:21;;;;;;;2.67;0.30;;;7.90;99.90;;;;;;5030918;28;20030;-86
2023/04/02 11:14:12;;;;;;;1.40;0.20;;;8.00;99.90;;;;;;5036283;28;20055;-88
2023/04/02 11:16:38;;;;;;;2.28;0.30;;;8.60;99.90;;;;;;5036695;28;20033;-86
2023/04/02 11:19:16;;;;;;;2.17;0.25;;;8.80;99.90;;;;;;5012815;28;20021;-85
2023/04/02 11:21:49;;;;;;;2.05;0.45;;;8.90;99.90;;;;;;5039813;28;20033;-85
2023/04/02 11:24:28;;;;;;;1.17;0.20;;;8.80;99.90;;;;;;5027990;28;20032;-87
2023/04/02 11:27:35;;;;;;;2.03;0.30;;;8.70;99.90;;;;;;5034322;28;20025;-87
2023/04/02 11:30:17;;;;;;;1.35;0.20;;;8.50;99.90;;;;;;5011180;28;20029;-88
2023/04/02 11:32:46;;;;;;;1.55;0.20;;;8.80;99.90;;;;;;5051839;28;20462;-88
2023/04/02 11:35:30;;;;;;;1.40;0.30;;;8.30;99.90;;;;;;5031319;28;20437;-88
2023/04/02 11:38:03;;;;;;;3.00;0.30;;;8.40;99.90;;;;;;5027500;28;20042;-89
2023/04/02 11:40:49;;;;;;;1.30;0.30;;;8.60;99.90;;;;;;5026675;28;20519;-88
2023/04/02 11:43:33;;;;;;;1.38;0.30;;;8.60;99.90;;;;;;5027157;28;20085;-86
2023/04/02 11:46:17;;;;;;;3.13;0.35;;;8.90;99.90;;;;;;5035175;28;20078;-87
2023/04/02 11:48:43;;;;;;;0.98;0.20;;;8.70;99.90;;;;;;5026430;28;20036;-88
2023/04/02 11:51:29;;;;;;;1.60;0.28;;;8.80;99.90;;;;;;5011593;28;20025;-88
2023/04/02 11:53:57;;;;;;;2.95;0.40;;;8.80;99.90;;;;;;5003310;28;20036;-88
2023/04/02 11:56:44;;;;;;;1.70;0.35;;;8.70;99.90;;;;;;5007954;28;20124;-87
2023/04/02 11:59:38;;;;;;;2.20;0.30;;;9.00;99.90;;;;;;5027009;28;20052;-87
2023/04/02 12:02:33;;;;;;;1.13;0.30;;;8.80;99.90;;;;;;5021948;28;20021;-89
2023/04/02 12:05:08;;;;;;;2.20;0.30;;;9.20;99.90;;;;;;5018871;28;20422;-86
2023/04/02 12:08:09;;;;;;;1.30;0.30;;;9.30;99.90;;;;;;5036163;28;20037;-88
2023/04/02 12:10:53;;;;;;;1.27;0.30;;;9.50;99.90;;;;;;4954151;28;20050;-88
2023/04/02 12:13:39;;;;;;;1.70;0.30;;;9.50;99.90;;;;;;4992828;28;20518;-88
2023/04/02 12:16:10;;;;;;;3.83;0.40;;;9.90;99.90;;;;;;4976473;28;20034;-86
2023/04/02 12:18:45;;;;;;;3.08;0.40;;;9.80;99.90;;;;;;4977343;28;20041;-88
2023/04/02 12:21:17;;;;;;;1.30;0.30;;;10.00;99.90;;;;;;4970130;28;20054;-87
2023/04/02 12:23:46;;;;;;;1.85;0.30;;;9.80;99.90;;;;;;4958255;28;20484;-88
2023/04/02 12:26:36;;;;;;;1.00;0.30;;;10.20;99.90;;;;;;4994306;28;20116;-88
2023/04/02 12:29:27;;;;;;;1.85;0.38;;;10.50;99.90;;;;;;4974799;28;20047;-88
2023/04/02 12:31:58;;;;;;;1.00;0.30;;;10.50;99.90;;;;;;4988074;28;20113;-88
2023/04/02 12:34:25;;;;;;;;;;;10.30;99.90;;;;;;4989989;28;20042;-88
2023/04/02 12:37:04;;;;;;;2.05;0.28;;;10.20;99.90;;;;;;4981395;28;19910;-87
2023/04/02 12:39:33;;;;;;;2.33;0.20;;;10.30;99.90;;;;;;4956991;28;20030;-87
2023/04/02 12:42:00;;;;;;;1.52;0.30;;;10.00;99.90;;;;;;4991972;28;20467;-88
2023/04/02 12:44:28;;;;;;;2.97;0.30;;;9.80;99.90;;;;;;5003939;28;20132;-88
2023/04/02 12:46:56;;;;;;;1.77;0.30;;;10.00;99.90;;;;;;5024067;28;20642;-87
2023/04/02 12:49:38;;;;;;;2.03;0.32;;;10.10;99.90;;;;;;5030622;28;21088;-88
2023/04/02 12:52:13;;;;;;;1.73;0.20;;;10.20;99.90;;;;;;5025624;28;20025;-88
2023/04/02 12:54:45;;;;;;;1.08;0.20;;;10.50;99.90;;;;;;5038843;28;20029;-87
2023/04/02 12:57:25;;;;;;;1.55;0.20;;;10.50;99.90;;;;;;5035246;28;20034;-88
2023/04/02 13:00:00;;;;;;;1.55;0.20;;;10.70;99.90;;;;;;5029635;28;20052;-90
2023/04/02 13:02:43;;;;;;;1.95;0.20;;;10.60;99.90;;;;;;5034378;28;20064;-88
2023/04/02 13:05:10;;;;;;;1.00;0.22;;;10.90;99.90;;;;;;5031793;28;20033;-89
2023/04/02 13:07:36;;;;;;;0.80;0.20;;;10.40;99.90;;;;;;5020683;28;20058;-88
2023/04/02 13:10:23;;;;;;;0.73;0.20;;;10.20;99.90;;;;;;5012690;28;20493;-89
2023/04/02 13:12:58;;;;;;;1.17;0.20;;;10.70;99.90;;;;;;5042955;28;20056;-89
2023/04/02 13:15:27;;;;;;;1.85;0.30;;;10.60;99.90;;;;;;5017265;28;20116;-89
2023/04/02 13:18:11;;;;;;;2.58;0.30;;;10.30;99.90;;;;;;5020031;28;20025;-88
2023/04/02 13:20:41;;;;;;;1.10;0.30;;;10.30;99.90;;;;;;5035663;28;20064;-87
2023/04/02 13:23:24;;;;;;;;;;;10.30;99.90;;;;;;5007831;28;20116;-86
2023/04/02 13:25:50;;;;;;;1.73;0.20;;;10.50;99.90;;;;;;5044372;28;19919;-88
2023/04/02 13:28:16;;;;;;;1.33;0.20;;;10.40;99.90;;;;;;5035663;28;20385;-89
2023/04/02 13:30:42;;;;;;;1.50;0.35;;;10.40;99.90;;;;;;5023632;28;20029;-87
2023/04/02 13:33:08;;;;;;;0.70;0.20;;;10.20;99.90;;;;;;5036833;28;20032;-88
2023/04/02 13:35:34;;;;;;;1.85;0.20;;;10.30;99.90;;;;;;5022516;28;20259;-90
2023/04/02 13:38:01;;;;;;;0.90;0.20;;;10.50;99.90;;;;;;5028601;28;20511;-88
2023/04/02 13:40:27;;;;;;;5.22;0.30;;;10.50;99.90;;;;;;5044903;28;20054;-89
2023/04/02 13:42:53;;;;;;;1.85;0.25;;;10.80;99.90;;;;;;5032130;28;20490;-88